createdAt,value
2019-01-12T00:00:07.490Z,34.92
2019-01-12T00:00:59.868Z,32.67
2019-01-12T00:01:35.486Z,34.40
2019-01-12T00:02:11.316Z,32.25
2019-01-12T00:02:46.659Z,32.38
2019-01-12T00:03:22.067Z,32.95
2019-01-12T00:03:57.525Z,29.67
2019-01-12T00:04:33.250Z,34.38
2019-01-12T00:05:08.582Z,28.67
2019-01-12T00:05:43.822Z,32.85
2019-01-12T00:06:19.305Z,34.98
2019-01-12T00:06:54.611Z,31.82
2019-01-12T00:07:30.004Z,35.08
2019-01-12T00:08:05.360Z,35.13
2019-01-12T00:08:40.755Z,36.38
2019-01-12T00:09:15.981Z,35.95
2019-01-12T00:09:51.421Z,32.78
2019-01-12T00:10:26.662Z,36.85
2019-01-12T00:11:02.193Z,28.73
2019-01-12T00:11:37.520Z,30.17
2019-01-12T00:12:12.873Z,24.23
2019-01-12T00:12:48.120Z,31.73
2019-01-12T00:13:23.600Z,29.98
2019-01-12T00:13:58.960Z,31.42
2019-01-12T00:14:34.359Z,34.23
2019-01-12T00:15:09.859Z,32.75
2019-01-12T00:15:45.185Z,30.92
2019-01-12T00:16:21.453Z,31.37
2019-01-12T00:16:56.897Z,32.15
2019-01-12T00:17:32.298Z,31.15
2019-01-12T00:18:07.835Z,32.48
2019-01-12T00:18:43.187Z,30.15
2019-01-12T00:19:18.573Z,27.10
2019-01-12T00:19:53.815Z,31.87
2019-01-12T00:20:29.031Z,30.12
2019-01-12T00:21:04.437Z,31.05
2019-01-12T00:21:39.710Z,32.73
2019-01-12T00:22:14.953Z,31.45
2019-01-12T00:22:50.301Z,32.78
2019-01-12T00:23:25.589Z,31.15
2019-01-12T00:24:00.898Z,30.37
2019-01-12T00:24:36.160Z,34.03
2019-01-12T00:25:11.475Z,29.82
2019-01-12T00:25:46.715Z,29.82
2019-01-12T00:26:22.532Z,31.85
2019-01-12T00:26:57.916Z,28.17
2019-01-12T00:27:33.264Z,33.35
2019-01-12T00:28:08.559Z,30.88
2019-01-12T00:28:43.756Z,33.25
2019-01-12T00:29:18.947Z,31.27
2019-01-12T00:29:54.155Z,29.00
2019-01-12T00:30:29.378Z,29.00
2019-01-12T00:31:04.810Z,29.65
2019-01-12T00:31:40.031Z,30.35
2019-01-12T00:32:15.767Z,30.10
2019-01-12T00:32:51.102Z,31.25
2019-01-12T00:33:26.361Z,31.95
2019-01-12T00:34:01.554Z,29.27
2019-01-12T00:34:36.805Z,27.25
2019-01-12T00:35:12.163Z,27.80
2019-01-12T00:35:47.491Z,36.77
2019-01-12T00:36:22.714Z,31.30
2019-01-12T00:36:57.943Z,39.13
2019-01-12T00:37:33.176Z,39.63
2019-01-12T00:38:08.618Z,37.20
2019-01-12T00:38:43.888Z,39.15
2019-01-12T00:39:19.268Z,39.48
2019-01-12T00:39:54.754Z,39.63
2019-01-12T00:40:29.940Z,42.25
2019-01-12T00:41:05.160Z,36.95
2019-01-12T00:41:40.427Z,33.15
2019-01-12T00:42:15.636Z,36.77
2019-01-12T00:42:50.924Z,35.23
2019-01-12T00:43:26.315Z,35.95
2019-01-12T00:44:01.580Z,32.38
2019-01-12T00:44:36.925Z,34.27
2019-01-12T00:45:12.610Z,33.18
2019-01-12T00:45:47.830Z,32.28
2019-01-12T00:46:23.090Z,33.70
2019-01-12T00:46:58.391Z,36.48
2019-01-12T00:47:33.655Z,36.15
2019-01-12T00:48:09.058Z,35.08
2019-01-12T00:48:44.347Z,35.03
2019-01-12T00:49:19.637Z,32.93
2019-01-12T00:49:54.829Z,36.63
2019-01-12T00:50:30.075Z,33.00
2019-01-12T00:51:05.489Z,30.55
2019-01-12T00:51:40.732Z,31.12
2019-01-12T00:52:16.159Z,29.82
2019-01-12T00:52:51.626Z,35.03
2019-01-12T00:53:26.943Z,35.05
2019-01-12T00:54:02.371Z,34.58
2019-01-12T00:54:38.707Z,37.65
2019-01-12T00:55:14.302Z,32.75
2019-01-12T00:55:49.509Z,33.15
2019-01-12T00:56:24.751Z,36.33
2019-01-12T00:56:59.949Z,29.63
2019-01-12T00:57:35.307Z,32.67
2019-01-12T00:58:10.584Z,32.42
2019-01-12T00:58:45.793Z,39.18
2019-01-12T00:59:21.085Z,34.35
2019-01-12T00:59:56.436Z,37.55
2019-01-12T01:00:32.049Z,36.03
2019-01-12T01:01:07.381Z,33.70
2019-01-12T01:01:42.637Z,33.20
2019-01-12T01:02:18.052Z,32.70
2019-01-12T01:02:53.298Z,33.30
2019-01-12T01:03:28.547Z,32.13
2019-01-12T01:04:03.854Z,32.33
2019-01-12T01:04:39.234Z,35.00
2019-01-12T01:05:14.818Z,32.15
2019-01-12T01:05:50.190Z,28.23
2019-01-12T01:06:25.480Z,35.85
2019-01-12T01:07:00.800Z,32.42
2019-01-12T01:07:36.020Z,33.18
2019-01-12T01:08:11.452Z,29.77
2019-01-12T01:08:46.650Z,37.35
2019-01-12T01:09:21.970Z,32.95
2019-01-12T01:09:57.401Z,29.00
2019-01-12T01:10:32.659Z,28.02
2019-01-12T01:11:08.015Z,30.15
2019-01-12T01:11:43.370Z,29.52
2019-01-12T01:12:18.580Z,27.80
2019-01-12T01:12:53.913Z,28.20
2019-01-12T01:13:29.190Z,27.02
2019-01-12T01:14:04.651Z,27.93
2019-01-12T01:14:39.915Z,26.77
2019-01-12T01:15:15.321Z,29.52
2019-01-12T01:15:50.619Z,33.28
2019-01-12T01:16:25.991Z,30.15
2019-01-12T01:17:01.398Z,31.35
2019-01-12T01:17:36.716Z,32.70
2019-01-12T01:18:12.049Z,25.65
2019-01-12T01:18:47.271Z,25.72
2019-01-12T01:19:22.778Z,28.52
2019-01-12T01:19:58.008Z,32.95
2019-01-12T01:20:33.310Z,29.25
2019-01-12T01:21:08.690Z,26.80
2019-01-12T01:21:44.100Z,28.23
2019-01-12T01:22:19.446Z,30.23
2019-01-12T01:22:54.781Z,28.45
2019-01-12T01:23:30.079Z,30.77
2019-01-12T01:24:05.425Z,31.40
2019-01-12T01:24:45.815Z,31.82
2019-01-12T01:25:17.696Z,33.10
2019-01-12T01:25:54.755Z,32.28
2019-01-12T01:26:29.994Z,33.80
2019-01-12T01:27:05.447Z,32.20
2019-01-12T01:27:40.863Z,30.80
2019-01-12T01:28:16.187Z,27.73
2019-01-12T01:28:51.515Z,27.80
2019-01-12T01:29:26.735Z,28.07
2019-01-12T01:30:02.068Z,34.80
2019-01-12T01:30:37.406Z,29.80
2019-01-12T01:31:12.628Z,31.77
2019-01-12T01:31:47.831Z,30.77
2019-01-12T01:32:23.335Z,26.93
2019-01-12T01:32:58.767Z,27.65
2019-01-12T01:33:34.163Z,31.60
2019-01-12T01:34:09.423Z,30.15
2019-01-12T01:34:44.678Z,32.55
2019-01-12T01:35:19.873Z,32.33
2019-01-12T01:35:55.235Z,35.40
2019-01-12T01:36:30.475Z,33.05
2019-01-12T01:37:05.653Z,33.63
2019-01-12T01:37:40.973Z,29.67
2019-01-12T01:38:16.240Z,28.42
2019-01-12T01:38:51.507Z,33.00
2019-01-12T01:39:26.798Z,32.75
2019-01-12T01:40:02.147Z,32.20
2019-01-12T01:40:37.402Z,30.40
2019-01-12T01:41:12.679Z,33.58
2019-01-12T01:41:47.860Z,31.20
2019-01-12T01:42:23.111Z,31.65
2019-01-12T01:42:58.342Z,42.17
2019-01-12T01:43:33.670Z,34.83
2019-01-12T01:44:09.003Z,32.60
2019-01-12T01:44:44.305Z,28.35
2019-01-12T01:45:19.943Z,32.73
2019-01-12T01:45:55.171Z,31.15
2019-01-12T01:46:30.521Z,34.43
2019-01-12T01:47:06.238Z,32.58
2019-01-12T01:47:41.648Z,29.92
2019-01-12T01:48:16.903Z,36.00
2019-01-12T01:48:52.184Z,34.67
2019-01-12T01:49:27.515Z,33.10
2019-01-12T01:50:02.923Z,28.90
2019-01-12T01:50:38.167Z,31.30
2019-01-12T01:51:13.609Z,35.17
2019-01-12T01:51:49.011Z,32.85
2019-01-12T01:52:24.244Z,33.92
2019-01-12T01:52:59.584Z,35.38
2019-01-12T01:53:34.994Z,34.35
2019-01-12T01:54:10.315Z,36.90
2019-01-12T01:54:45.453Z,35.78
2019-01-12T01:55:20.894Z,31.27
2019-01-12T01:55:56.131Z,30.52
2019-01-12T01:56:31.411Z,35.28
2019-01-12T01:57:06.696Z,34.78
2019-01-12T01:57:41.950Z,35.43
2019-01-12T01:58:17.171Z,30.88
2019-01-12T01:58:52.431Z,34.55
2019-01-12T01:59:27.668Z,33.83
2019-01-12T02:00:03.578Z,32.35
2019-01-12T02:00:39.366Z,36.00
2019-01-12T02:01:14.607Z,30.48
2019-01-12T02:01:49.856Z,30.48
2019-01-12T02:02:25.165Z,28.85
2019-01-12T02:03:00.409Z,31.23
2019-01-12T02:03:35.648Z,31.85
2019-01-12T02:04:10.926Z,33.18
2019-01-12T02:04:46.137Z,37.58
2019-01-12T02:05:21.348Z,33.33
2019-01-12T02:05:56.645Z,29.57
2019-01-12T02:06:31.923Z,34.70
2019-01-12T02:07:07.222Z,35.60
2019-01-12T02:07:42.462Z,33.83
2019-01-12T02:08:17.684Z,35.78
2019-01-12T02:08:52.864Z,34.40
2019-01-12T02:09:28.140Z,33.90
2019-01-12T02:10:03.428Z,29.63
2019-01-12T02:10:38.641Z,38.15
2019-01-12T02:11:14.019Z,32.45
2019-01-12T02:11:49.355Z,29.67
2019-01-12T02:12:24.791Z,32.05
2019-01-12T02:13:00.051Z,36.42
2019-01-12T02:13:35.428Z,35.30
2019-01-12T02:14:11.162Z,33.80
2019-01-12T02:14:46.326Z,27.25
2019-01-12T02:15:22.709Z,35.10
2019-01-12T02:15:57.976Z,35.33
2019-01-12T02:16:33.176Z,36.75
2019-01-12T02:17:08.545Z,36.77
2019-01-12T02:17:43.983Z,35.73
2019-01-12T02:18:19.411Z,36.30
2019-01-12T02:18:54.836Z,33.15
2019-01-12T02:19:30.267Z,37.58
2019-01-12T02:20:05.824Z,29.63
2019-01-12T02:20:41.090Z,37.50
2019-01-12T02:21:16.332Z,33.20
2019-01-12T02:21:51.562Z,33.48
2019-01-12T02:22:26.749Z,35.15
2019-01-12T02:23:02.036Z,33.98
2019-01-12T02:23:37.277Z,37.30
2019-01-12T02:24:12.664Z,31.93
2019-01-12T02:24:47.878Z,34.58
2019-01-12T02:25:23.096Z,35.38
2019-01-12T02:25:58.316Z,38.05
2019-01-12T02:26:33.486Z,37.05
2019-01-12T02:27:08.694Z,35.17
2019-01-12T02:27:43.974Z,40.92
2019-01-12T02:28:19.194Z,36.00
2019-01-12T02:28:55.104Z,35.85
2019-01-12T02:29:30.474Z,40.17
2019-01-12T02:30:07.844Z,37.93
2019-01-12T02:30:43.186Z,40.12
2019-01-12T02:31:18.412Z,36.60
2019-01-12T02:31:53.641Z,37.88
2019-01-12T02:32:30.546Z,36.77
2019-01-12T02:33:05.714Z,38.50
2019-01-12T02:33:41.037Z,39.88
2019-01-12T02:34:16.290Z,42.27
2019-01-12T02:34:51.600Z,38.98
2019-01-12T02:35:30.316Z,38.98
2019-01-12T02:36:05.591Z,39.98
2019-01-12T02:36:40.877Z,41.83
2019-01-12T02:37:16.123Z,37.80
2019-01-12T02:37:51.418Z,38.02
2019-01-12T02:38:26.696Z,35.17
2019-01-12T02:39:01.914Z,33.13
2019-01-12T02:39:37.263Z,37.80
2019-01-12T02:40:12.906Z,36.40
2019-01-12T02:40:48.198Z,41.70
2019-01-12T02:41:23.545Z,45.83
2019-01-12T02:41:58.757Z,47.13
2019-01-12T02:42:34.064Z,46.10
2019-01-12T02:43:09.603Z,47.62
2019-01-12T02:43:44.849Z,41.23
2019-01-12T02:44:20.083Z,41.60
2019-01-12T02:44:55.300Z,44.23
2019-01-12T02:45:30.669Z,48.58
2019-01-12T02:46:06.003Z,44.40
2019-01-12T02:46:41.493Z,39.42
2019-01-12T02:47:17.279Z,40.58
2019-01-12T02:47:52.738Z,49.03
2019-01-12T02:48:28.283Z,45.60
2019-01-12T02:49:03.524Z,39.25
2019-01-12T02:49:38.853Z,38.08
2019-01-12T02:50:14.394Z,35.00
2019-01-12T02:50:49.614Z,40.92
2019-01-12T02:51:24.982Z,43.35
2019-01-12T02:52:00.290Z,50.78
2019-01-12T02:52:35.586Z,41.65
2019-01-12T02:53:10.839Z,42.00
2019-01-12T02:53:46.277Z,47.03
2019-01-12T02:54:21.573Z,41.80
2019-01-12T02:54:57.020Z,39.63
2019-01-12T02:55:32.442Z,41.18
2019-01-12T02:56:07.767Z,42.10
2019-01-12T02:56:43.297Z,45.48
2019-01-12T02:57:18.774Z,46.15
2019-01-12T02:57:54.069Z,41.58
2019-01-12T02:58:29.502Z,48.65
2019-01-12T02:59:04.899Z,39.55
2019-01-12T02:59:40.622Z,44.58
2019-01-12T03:00:18.590Z,40.70
2019-01-12T03:00:53.898Z,45.40
2019-01-12T03:01:29.187Z,40.03
2019-01-12T03:02:05.188Z,35.45
2019-01-12T03:02:40.743Z,39.13
2019-01-12T03:03:16.049Z,41.23
2019-01-12T03:03:51.662Z,44.27
2019-01-12T03:04:27.002Z,42.85
2019-01-12T03:05:02.311Z,42.70
2019-01-12T03:05:37.748Z,39.58
2019-01-12T03:06:13.163Z,41.13
2019-01-12T03:06:48.529Z,41.25
2019-01-12T03:07:23.900Z,41.95
2019-01-12T03:07:59.363Z,40.05
2019-01-12T03:08:34.683Z,42.08
2019-01-12T03:09:10.501Z,38.80
2019-01-12T03:09:45.867Z,40.60
2019-01-12T03:10:21.290Z,40.63
2019-01-12T03:10:56.569Z,40.28
2019-01-12T03:11:31.850Z,44.53
2019-01-12T03:12:07.308Z,42.00
2019-01-12T03:12:42.797Z,46.20
2019-01-12T03:13:18.096Z,44.90
2019-01-12T03:13:53.345Z,45.03
2019-01-12T03:14:28.594Z,42.43
2019-01-12T03:15:04.320Z,42.65
2019-01-12T03:15:39.781Z,42.45
2019-01-12T03:16:15.174Z,41.40
2019-01-12T03:16:50.510Z,44.73
2019-01-12T03:17:25.916Z,41.83
2019-01-12T03:18:01.202Z,48.68
2019-01-12T03:18:36.610Z,39.05
2019-01-12T03:19:11.881Z,46.95
2019-01-12T03:19:47.362Z,44.20
2019-01-12T03:20:22.698Z,47.95
2019-01-12T03:20:58.132Z,45.23
2019-01-12T03:21:33.540Z,45.28
2019-01-12T03:22:08.879Z,42.10
2019-01-12T03:22:44.307Z,45.05
2019-01-12T03:23:19.648Z,46.50
2019-01-12T03:23:54.964Z,51.83
2019-01-12T03:24:30.278Z,47.78
2019-01-12T03:25:06.457Z,48.98
2019-01-12T03:25:41.919Z,54.42
2019-01-12T03:26:17.499Z,46.63
2019-01-12T03:26:52.931Z,49.75
2019-01-12T03:27:28.362Z,47.25
2019-01-12T03:28:03.770Z,53.78
2019-01-12T03:28:39.494Z,52.80
2019-01-12T03:29:14.863Z,50.65
2019-01-12T03:29:50.322Z,47.85
2019-01-12T03:30:25.601Z,52.73
2019-01-12T03:31:01.113Z,51.15
2019-01-12T03:31:36.430Z,55.08
2019-01-12T03:32:13.082Z,52.73
2019-01-12T03:32:48.429Z,49.13
2019-01-12T03:33:23.799Z,53.73
2019-01-12T03:33:59.353Z,55.60
2019-01-12T03:34:34.604Z,53.92
2019-01-12T03:35:09.941Z,59.80
2019-01-12T03:35:45.308Z,62.95
2019-01-12T03:36:20.782Z,53.80
2019-01-12T03:36:56.133Z,64.40
2019-01-12T03:37:31.537Z,49.63
2019-01-12T03:38:06.926Z,63.38
2019-01-12T03:38:42.527Z,62.50
2019-01-12T03:39:17.881Z,65.92
2019-01-12T03:39:53.195Z,62.27
2019-01-12T03:40:28.459Z,55.98
2019-01-12T03:41:03.768Z,65.72
2019-01-12T03:41:39.138Z,66.37
2019-01-12T03:42:14.407Z,63.08
2019-01-12T03:42:49.600Z,68.52
2019-01-12T03:43:24.856Z,73.17
2019-01-12T03:44:00.403Z,70.15
2019-01-12T03:44:35.733Z,90.92
2019-01-12T03:45:12.159Z,83.78
2019-01-12T03:45:47.434Z,67.67
2019-01-12T03:46:22.866Z,69.80
2019-01-12T03:46:58.316Z,74.87
2019-01-12T03:47:33.702Z,72.55
2019-01-12T03:48:09.055Z,67.75
2019-01-12T03:48:44.373Z,70.70
2019-01-12T03:49:19.761Z,75.03
2019-01-12T03:49:55.187Z,69.07
2019-01-12T03:50:30.728Z,76.90
2019-01-12T03:51:06.447Z,82.53
2019-01-12T03:51:42.212Z,85.10
2019-01-12T03:52:17.850Z,83.47
2019-01-12T03:52:53.212Z,77.30
2019-01-12T03:53:28.502Z,72.05
2019-01-12T03:54:03.851Z,85.92
2019-01-12T03:54:39.147Z,82.08
2019-01-12T03:55:14.489Z,89.40
2019-01-12T03:55:49.718Z,72.78
2019-01-12T03:56:24.959Z,87.60
2019-01-12T03:57:00.279Z,82.88
2019-01-12T03:57:35.606Z,82.92
2019-01-12T03:58:10.841Z,83.07
2019-01-12T03:58:46.142Z,100.87
2019-01-12T03:59:21.499Z,89.72
2019-01-12T03:59:56.801Z,92.37
2019-01-12T04:00:32.020Z,81.22
2019-01-12T04:01:07.229Z,98.05
2019-01-12T04:01:43.005Z,105.32
2019-01-12T04:02:18.204Z,89.42
2019-01-12T04:02:53.499Z,92.45
2019-01-12T04:03:28.764Z,107.90
2019-01-12T04:04:03.977Z,109.92
2019-01-12T04:04:39.232Z,97.17
2019-01-12T04:05:14.497Z,104.65
2019-01-12T04:05:50.420Z,109.15
2019-01-12T04:06:25.730Z,91.63
2019-01-12T04:07:01.166Z,128.75
2019-01-12T04:07:36.341Z,91.92
2019-01-12T04:08:11.703Z,94.75
2019-01-12T04:08:47.006Z,96.02
2019-01-12T04:09:22.247Z,108.12
2019-01-12T04:09:57.531Z,107.10
2019-01-12T04:10:32.843Z,111.30
2019-01-12T04:11:08.284Z,118.28
2019-01-12T04:11:43.583Z,114.50
2019-01-12T04:12:18.832Z,113.95
2019-01-12T04:12:54.155Z,115.60
2019-01-12T04:13:29.561Z,125.12
2019-01-12T04:14:05.085Z,125.25
2019-01-12T04:14:40.462Z,120.70
2019-01-12T04:15:15.875Z,118.47
2019-01-12T04:15:51.202Z,146.57
2019-01-12T04:16:26.428Z,130.10
2019-01-12T04:17:01.872Z,131.90
2019-01-12T04:17:37.266Z,111.77
2019-01-12T04:18:12.523Z,122.98
2019-01-12T04:18:47.874Z,136.55
2019-01-12T04:19:23.269Z,121.05
2019-01-12T04:19:58.697Z,122.13
2019-01-12T04:20:33.989Z,117.40
2019-01-12T04:21:09.314Z,135.30
2019-01-12T04:21:44.578Z,134.18
2019-01-12T04:22:19.909Z,152.55
2019-01-12T04:22:55.217Z,138.52
2019-01-12T04:23:30.418Z,134.95
2019-01-12T04:24:06.052Z,145.75
2019-01-12T04:24:41.644Z,141.07
2019-01-12T04:25:17.247Z,135.80
2019-01-12T04:25:55.988Z,138.20
2019-01-12T04:26:31.609Z,143.43
2019-01-12T04:27:07.209Z,122.37
2019-01-12T04:27:42.651Z,150.32
2019-01-12T04:28:18.070Z,136.15
2019-01-12T04:28:53.614Z,137.60
2019-01-12T04:29:29.240Z,157.22
2019-01-12T04:30:05.889Z,139.60
2019-01-12T04:30:41.451Z,120.47
2019-01-12T04:31:16.978Z,147.13
2019-01-12T04:31:52.510Z,162.60
2019-01-12T04:32:28.210Z,160.65
2019-01-12T04:33:04.181Z,139.07
2019-01-12T04:33:39.931Z,148.17
2019-01-12T04:34:15.564Z,136.62
2019-01-12T04:34:51.398Z,133.75
2019-01-12T04:35:26.905Z,133.65
2019-01-12T04:36:02.567Z,121.37
2019-01-12T04:36:37.997Z,159.07
2019-01-12T04:37:13.521Z,146.22
2019-01-12T04:37:48.947Z,152.75
2019-01-12T04:38:24.485Z,136.55
2019-01-12T04:39:00.017Z,142.43
2019-01-12T04:39:35.565Z,155.40
2019-01-12T04:40:14.317Z,145.87
2019-01-12T04:40:49.896Z,163.60
2019-01-12T04:41:25.429Z,140.20
2019-01-12T04:42:00.870Z,140.77
2019-01-12T04:42:36.613Z,121.95
2019-01-12T04:43:12.110Z,139.32
2019-01-12T04:43:47.650Z,144.57
2019-01-12T04:44:23.207Z,143.50
2019-01-12T04:44:58.813Z,136.00
2019-01-12T04:45:34.468Z,150.53
2019-01-12T04:46:09.985Z,154.93
2019-01-12T04:46:45.542Z,157.03
2019-01-12T04:47:21.036Z,155.63
2019-01-12T04:47:56.605Z,154.20
2019-01-12T04:48:32.138Z,151.82
2019-01-12T04:49:07.652Z,134.32
2019-01-12T04:49:43.115Z,150.65
2019-01-12T04:50:19.242Z,151.90
2019-01-12T04:50:54.926Z,163.32
2019-01-12T04:51:30.614Z,158.75
2019-01-12T04:52:06.373Z,161.05
2019-01-12T04:52:42.128Z,157.67
2019-01-12T04:53:17.616Z,162.62
2019-01-12T04:53:53.234Z,140.22
2019-01-12T04:54:28.784Z,163.85
2019-01-12T04:55:04.296Z,164.55
2019-01-12T04:55:41.560Z,157.47
2019-01-12T04:56:17.377Z,156.35
2019-01-12T04:56:53.253Z,155.40
2019-01-12T04:57:28.894Z,196.72
2019-01-12T04:58:04.975Z,211.52
2019-01-12T04:58:40.840Z,200.62
2019-01-12T04:59:16.412Z,217.70
2019-01-12T04:59:51.978Z,205.18
2019-01-12T05:00:27.528Z,166.03
2019-01-12T05:01:03.241Z,188.05
2019-01-12T05:01:39.050Z,220.05
2019-01-12T05:02:14.831Z,188.93
2019-01-12T05:02:50.553Z,190.35
2019-01-12T05:03:26.184Z,183.85
2019-01-12T05:04:01.614Z,211.75
2019-01-12T05:04:37.141Z,210.82
2019-01-12T05:05:12.792Z,220.95
2019-01-12T05:05:49.264Z,215.97
2019-01-12T05:06:24.784Z,182.80
2019-01-12T05:07:00.383Z,197.70
2019-01-12T05:07:35.827Z,149.00
2019-01-12T05:08:11.368Z,176.78
2019-01-12T05:08:47.008Z,202.47
2019-01-12T05:09:22.514Z,151.72
2019-01-12T05:09:58.082Z,142.75
2019-01-12T05:10:33.693Z,142.30
2019-01-12T05:11:09.260Z,198.07
2019-01-12T05:11:44.785Z,184.57
2019-01-12T05:12:20.386Z,223.45
2019-01-12T05:12:55.972Z,179.78
2019-01-12T05:13:31.493Z,178.23
2019-01-12T05:14:06.998Z,191.95
2019-01-12T05:14:42.517Z,189.67
2019-01-12T05:15:18.387Z,188.00
2019-01-12T05:15:54.010Z,176.27
2019-01-12T05:16:29.460Z,169.65
2019-01-12T05:17:04.981Z,168.47
2019-01-12T05:17:40.860Z,178.05
2019-01-12T05:18:16.540Z,196.30
2019-01-12T05:18:52.203Z,185.75
2019-01-12T05:19:27.820Z,179.38
2019-01-12T05:20:03.389Z,182.25
2019-01-12T05:20:39.029Z,182.35
2019-01-12T05:21:14.781Z,175.03
2019-01-12T05:21:50.481Z,192.90
2019-01-12T05:22:26.102Z,183.82
2019-01-12T05:23:01.822Z,168.37
2019-01-12T05:23:37.383Z,175.40
2019-01-12T05:24:12.895Z,177.72
2019-01-12T05:24:49.097Z,170.02
2019-01-12T05:25:24.691Z,171.95
2019-01-12T05:26:00.233Z,172.05
2019-01-12T05:26:35.759Z,180.80
2019-01-12T05:27:11.286Z,194.95
2019-01-12T05:27:46.718Z,170.15
2019-01-12T05:28:22.247Z,178.55
2019-01-12T05:28:57.913Z,179.53
2019-01-12T05:29:33.553Z,197.68
2019-01-12T05:30:10.967Z,193.22
2019-01-12T05:30:46.651Z,201.67
2019-01-12T05:31:22.173Z,200.53
2019-01-12T05:31:57.721Z,182.78
2019-01-12T05:32:33.386Z,191.25
2019-01-12T05:33:08.956Z,188.07
2019-01-12T05:33:44.787Z,148.43
2019-01-12T05:34:20.365Z,174.53
2019-01-12T05:34:56.322Z,190.75
2019-01-12T05:35:31.791Z,175.50
2019-01-12T05:36:07.285Z,182.15
2019-01-12T05:36:42.893Z,180.67
2019-01-12T05:37:18.415Z,187.90
2019-01-12T05:37:54.111Z,211.87
2019-01-12T05:38:29.774Z,190.85
2019-01-12T05:39:06.963Z,186.35
2019-01-12T05:39:42.395Z,183.05
2019-01-12T05:40:18.373Z,162.05
2019-01-12T05:40:54.083Z,188.20
2019-01-12T05:41:29.715Z,212.63
2019-01-12T05:42:05.329Z,213.18
2019-01-12T05:42:40.747Z,209.45
2019-01-12T05:43:16.210Z,226.52
2019-01-12T05:43:51.643Z,201.85
2019-01-12T05:44:27.645Z,217.15
2019-01-12T05:45:03.219Z,203.62
2019-01-12T05:45:38.771Z,169.05
2019-01-12T05:46:14.386Z,176.57
2019-01-12T05:46:50.015Z,197.80
2019-01-12T05:47:25.445Z,153.40
2019-01-12T05:48:00.907Z,200.00
2019-01-12T05:48:36.408Z,193.62
2019-01-12T05:49:11.955Z,203.50
2019-01-12T05:49:47.857Z,193.22
2019-01-12T05:50:23.426Z,220.90
2019-01-12T05:50:58.938Z,210.65
2019-01-12T05:51:34.511Z,211.07
2019-01-12T05:52:10.283Z,191.95
2019-01-12T05:52:45.885Z,209.70
2019-01-12T05:53:21.494Z,234.15
2019-01-12T05:53:57.310Z,201.25
2019-01-12T05:54:32.739Z,178.68
2019-01-12T05:55:09.103Z,220.95
2019-01-12T05:55:44.874Z,207.77
2019-01-12T05:56:20.509Z,192.65
2019-01-12T05:56:56.104Z,202.65
2019-01-12T05:57:31.571Z,193.65
2019-01-12T05:58:07.092Z,165.97
2019-01-12T05:58:42.658Z,201.95
2019-01-12T05:59:18.349Z,157.57
2019-01-12T05:59:53.879Z,186.18
2019-01-12T06:00:29.597Z,175.32
2019-01-12T06:01:05.375Z,154.82
2019-01-12T06:01:40.876Z,165.22
2019-01-12T06:02:16.316Z,172.37
2019-01-12T06:02:51.768Z,192.92
2019-01-12T06:03:27.287Z,159.75
2019-01-12T06:04:02.803Z,148.57
2019-01-12T06:04:38.364Z,175.53
2019-01-12T06:05:14.017Z,196.15
2019-01-12T06:05:49.606Z,179.85
2019-01-12T06:06:25.173Z,172.43
2019-01-12T06:07:00.718Z,186.77
2019-01-12T06:07:36.257Z,157.95
2019-01-12T06:08:11.806Z,169.97
2019-01-12T06:08:47.375Z,167.65
2019-01-12T06:09:22.900Z,158.37
2019-01-12T06:09:58.460Z,170.25
2019-01-12T06:10:34.191Z,169.25
2019-01-12T06:11:09.827Z,175.03
2019-01-12T06:11:45.792Z,144.37
2019-01-12T06:12:22.165Z,163.65
2019-01-12T06:12:57.800Z,176.87
2019-01-12T06:13:33.401Z,155.57
2019-01-12T06:14:08.950Z,172.17
2019-01-12T06:14:44.473Z,151.12
2019-01-12T06:15:20.192Z,175.55
2019-01-12T06:15:55.753Z,186.03
2019-01-12T06:16:31.475Z,166.97
2019-01-12T06:17:06.933Z,164.18
2019-01-12T06:17:42.666Z,147.70
2019-01-12T06:18:18.165Z,150.30
2019-01-12T06:18:53.606Z,137.80
2019-01-12T06:19:29.045Z,148.20
2019-01-12T06:20:05.284Z,136.75
2019-01-12T06:20:40.826Z,150.42
2019-01-12T06:21:16.453Z,160.35
2019-01-12T06:21:52.080Z,146.02
2019-01-12T06:22:27.994Z,140.12
2019-01-12T06:23:03.573Z,167.28
2019-01-12T06:23:39.191Z,136.20
2019-01-12T06:24:14.732Z,142.53
2019-01-12T06:24:50.282Z,142.65
2019-01-12T06:25:25.812Z,131.63
2019-01-12T06:26:04.102Z,133.00
2019-01-12T06:26:38.625Z,145.17
2019-01-12T06:27:14.322Z,133.60
2019-01-12T06:27:50.061Z,155.43
2019-01-12T06:28:25.714Z,145.65
2019-01-12T06:29:01.531Z,153.10
2019-01-12T06:29:37.278Z,161.57
2019-01-12T06:30:18.435Z,162.07
2019-01-12T06:30:54.005Z,177.62
2019-01-12T06:31:29.777Z,182.53
2019-01-12T06:32:05.446Z,144.57
2019-01-12T06:32:41.158Z,170.28
2019-01-12T06:33:16.768Z,172.85
2019-01-12T06:33:52.293Z,188.35
2019-01-12T06:34:27.840Z,188.75
2019-01-12T06:35:03.692Z,200.50
2019-01-12T06:35:39.170Z,189.43
2019-01-12T06:36:14.698Z,198.10
2019-01-12T06:36:50.311Z,198.62
2019-01-12T06:37:25.987Z,191.05
2019-01-12T06:38:01.809Z,195.90
2019-01-12T06:38:37.369Z,180.80
2019-01-12T06:39:13.006Z,191.40
2019-01-12T06:39:48.510Z,183.30
2019-01-12T06:40:24.121Z,182.37
2019-01-12T06:40:59.781Z,180.20
2019-01-12T06:41:35.522Z,189.30
2019-01-12T06:42:11.116Z,168.70
2019-01-12T06:42:46.805Z,182.07
2019-01-12T06:43:22.508Z,164.93
2019-01-12T06:43:58.114Z,194.70
2019-01-12T06:44:33.731Z,172.60
2019-01-12T06:45:10.942Z,155.60
2019-01-12T06:45:46.851Z,167.10
2019-01-12T06:46:23.390Z,158.32
2019-01-12T06:46:59.051Z,163.87
2019-01-12T06:47:35.185Z,153.18
2019-01-12T06:48:10.829Z,175.40
2019-01-12T06:48:46.528Z,145.77
2019-01-12T06:49:22.212Z,175.05
2019-01-12T06:49:57.871Z,177.22
2019-01-12T06:50:33.623Z,169.87
2019-01-12T06:51:09.195Z,178.90
2019-01-12T06:51:44.938Z,180.03
2019-01-12T06:52:20.594Z,171.77
2019-01-12T06:52:56.155Z,179.30
2019-01-12T06:53:31.842Z,198.00
2019-01-12T06:54:07.815Z,175.72
2019-01-12T06:54:43.419Z,166.05
2019-01-12T06:55:19.445Z,157.00
2019-01-12T06:55:55.197Z,161.82
2019-01-12T06:56:30.856Z,172.98
2019-01-12T06:57:06.583Z,127.60
2019-01-12T06:57:42.301Z,129.32
2019-01-12T06:58:18.043Z,137.75
2019-01-12T06:58:54.081Z,194.93
2019-01-12T06:59:29.837Z,210.05
2019-01-12T07:00:07.519Z,182.12
2019-01-12T07:00:43.039Z,199.62
2019-01-12T07:01:18.670Z,209.40
2019-01-12T07:01:54.214Z,181.52
2019-01-12T07:02:29.963Z,166.97
2019-01-12T07:03:05.703Z,133.25
2019-01-12T07:03:41.444Z,147.45
2019-01-12T07:04:16.952Z,138.07
2019-01-12T07:04:52.551Z,141.47
2019-01-12T07:05:28.263Z,148.30
2019-01-12T07:06:03.770Z,140.97
2019-01-12T07:06:39.530Z,151.45
2019-01-12T07:07:15.130Z,131.40
2019-01-12T07:07:50.662Z,155.20
2019-01-12T07:08:26.172Z,134.25
2019-01-12T07:09:01.712Z,118.10
2019-01-12T07:09:37.364Z,129.50
2019-01-12T07:10:13.553Z,113.60
2019-01-12T07:10:49.412Z,151.70
2019-01-12T07:11:24.965Z,135.32
2019-01-12T07:12:00.898Z,136.45
2019-01-12T07:12:36.775Z,147.45
2019-01-12T07:13:12.798Z,135.45
2019-01-12T07:13:48.727Z,132.82
2019-01-12T07:14:24.446Z,115.03
2019-01-12T07:15:00.162Z,142.75
2019-01-12T07:15:36.189Z,139.30
2019-01-12T07:16:12.273Z,125.05
2019-01-12T07:16:48.017Z,154.35
2019-01-12T07:17:23.724Z,133.18
2019-01-12T07:17:59.439Z,113.72
2019-01-12T07:18:35.189Z,107.75
2019-01-12T07:19:10.764Z,134.85
2019-01-12T07:19:46.369Z,134.78
2019-01-12T07:20:21.879Z,134.45
2019-01-12T07:20:57.535Z,135.18
2019-01-12T07:21:33.174Z,109.55
2019-01-12T07:22:08.787Z,125.50
2019-01-12T07:22:44.307Z,122.42
2019-01-12T07:23:20.159Z,119.97
2019-01-12T07:23:55.717Z,125.58
2019-01-12T07:24:31.270Z,135.55
2019-01-12T07:25:07.471Z,133.63
2019-01-12T07:25:43.150Z,141.73
2019-01-12T07:26:18.829Z,135.70
2019-01-12T07:26:54.484Z,108.60
2019-01-12T07:27:30.133Z,113.52
2019-01-12T07:28:05.645Z,96.70
2019-01-12T07:28:41.298Z,105.65
2019-01-12T07:29:16.817Z,116.62
2019-01-12T07:29:52.347Z,103.12
2019-01-12T07:30:27.953Z,85.90
2019-01-12T07:31:03.534Z,93.85